sensor_id;sensor_type;location;lat;lon;timestamp;temperature;humidity
18365;DHT22;9309;52.126;11.616;2023-07-31T00:00:47;18.00;65.60
18365;DHT22;9309;52.126;11.616;2023-07-31T00:03:14;17.90;66.40
18365;DHT22;9309;52.126;11.616;2023-07-31T00:05:40;17.80;65.30
18365;DHT22;9309;52.126;11.616;2023-07-31T00:08:07;17.80;66.00
18365;DHT22;9309;52.126;11.616;2023-07-31T00:10:34;17.90;65.30
18365;DHT22;9309;52.126;11.616;2023-07-31T00:13:00;17.90;65.10
18365;DHT22;9309;52.126;11.616;2023-07-31T00:15:27;17.90;65.50
18365;DHT22;9309;52.126;11.616;2023-07-31T00:17:56;17.80;65.50
18365;DHT22;9309;52.126;11.616;2023-07-31T00:20:23;17.70;65.60
18365;DHT22;9309;52.126;11.616;2023-07-31T00:22:49;17.60;66.30
18365;DHT22;9309;52.126;11.616;2023-07-31T00:25:16;17.60;66.70
18365;DHT22;9309;52.126;11.616;2023-07-31T00:27:43;17.50;67.20
18365;DHT22;9309;52.126;11.616;2023-07-31T00:30:12;17.50;67.30
18365;DHT22;9309;52.126;11.616;2023-07-31T00:32:38;17.60;67.30
18365;DHT22;9309;52.126;11.616;2023-07-31T00:35:07;17.50;68.00
18365;DHT22;9309;52.126;11.616;2023-07-31T00:37:33;17.40;68.60
18365;DHT22;9309;52.126;11.616;2023-07-31T00:40:01;17.30;69.20
18365;DHT22;9309;52.126;11.616;2023-07-31T00:42:29;17.40;69.30
18365;DHT22;9309;52.126;11.616;2023-07-31T00:44:56;17.30;69.50
18365;DHT22;9309;52.126;11.616;2023-07-31T00:47:22;17.30;69.70
18365;DHT22;9309;52.126;11.616;2023-07-31T00:49:49;17.30;70.10
18365;DHT22;9309;52.126;11.616;2023-07-31T00:52:18;17.30;69.90
18365;DHT22;9309;52.126;11.616;2023-07-31T00:54:45;17.40;69.60
18365;DHT22;9309;52.126;11.616;2023-07-31T00:57:12;17.30;70.10
18365;DHT22;9309;52.126;11.616;2023-07-31T00:59:39;17.20;70.10
18365;DHT22;9309;52.126;11.616;2023-07-31T01:02:06;17.30;70.20
18365;DHT22;9309;52.126;11.616;2023-07-31T01:04:33;17.30;70.20
18365;DHT22;9309;52.126;11.616;2023-07-31T01:07:03;17.40;69.70
18365;DHT22;9309;52.126;11.616;2023-07-31T01:09:39;17.50;69.70
18365;DHT22;9309;52.126;11.616;2023-07-31T01:12:09;17.40;69.80
18365;DHT22;9309;52.126;11.616;2023-07-31T01:14:36;17.40;69.90
18365;DHT22;9309;52.126;11.616;2023-07-31T01:17:02;17.40;70.30
18365;DHT22;9309;52.126;11.616;2023-07-31T01:19:29;17.30;71.00
18365;DHT22;9309;52.126;11.616;2023-07-31T01:22:12;17.20;71.60
18365;DHT22;9309;52.126;11.616;2023-07-31T01:24:52;17.00;73.30
18365;DHT22;9309;52.126;11.616;2023-07-31T01:27:25;17.00;73.20
18365;DHT22;9309;52.126;11.616;2023-07-31T01:30:00;17.20;72.10
18365;DHT22;9309;52.126;11.616;2023-07-31T01:32:29;17.20;72.40
18365;DHT22;9309;52.126;11.616;2023-07-31T01:34:58;17.20;73.00
18365;DHT22;9309;52.126;11.616;2023-07-31T01:37:28;17.20;72.90
18365;DHT22;9309;52.126;11.616;2023-07-31T01:39:55;17.30;73.10
18365;DHT22;9309;52.126;11.616;2023-07-31T01:42:23;17.30;73.80
18365;DHT22;9309;52.126;11.616;2023-07-31T01:44:50;17.20;74.10
18365;DHT22;9309;52.126;11.616;2023-07-31T01:47:17;17.00;75.80
18365;DHT22;9309;52.126;11.616;2023-07-31T01:49:43;16.90;75.60
18365;DHT22;9309;52.126;11.616;2023-07-31T01:52:10;17.10;75.90
18365;DHT22;9309;52.126;11.616;2023-07-31T01:54:37;17.00;75.90
18365;DHT22;9309;52.126;11.616;2023-07-31T01:57:04;17.10;75.70
18365;DHT22;9309;52.126;11.616;2023-07-31T01:59:32;17.00;75.30
18365;DHT22;9309;52.126;11.616;2023-07-31T02:01:59;17.00;75.60
18365;DHT22;9309;52.126;11.616;2023-07-31T02:04:26;16.90;76.30
18365;DHT22;9309;52.126;11.616;2023-07-31T02:06:53;17.10;75.40
18365;DHT22;9309;52.126;11.616;2023-07-31T02:09:19;17.10;75.90
18365;DHT22;9309;52.126;11.616;2023-07-31T02:11:46;17.00;76.30
18365;DHT22;9309;52.126;11.616;2023-07-31T02:14:13;16.90;76.50
18365;DHT22;9309;52.126;11.616;2023-07-31T02:16:41;16.80;77.00
18365;DHT22;9309;52.126;11.616;2023-07-31T02:19:08;16.90;77.10
18365;DHT22;9309;52.126;11.616;2023-07-31T02:21:35;16.90;77.70
18365;DHT22;9309;52.126;11.616;2023-07-31T02:24:01;16.70;77.70
18365;DHT22;9309;52.126;11.616;2023-07-31T02:26:28;16.70;78.50
18365;DHT22;9309;52.126;11.616;2023-07-31T02:28:55;16.70;78.80
18365;DHT22;9309;52.126;11.616;2023-07-31T02:31:22;16.70;78.80
18365;DHT22;9309;52.126;11.616;2023-07-31T02:33:50;16.80;79.10
18365;DHT22;9309;52.126;11.616;2023-07-31T02:36:16;16.90;78.70
18365;DHT22;9309;52.126;11.616;2023-07-31T02:38:43;16.90;78.80
18365;DHT22;9309;52.126;11.616;2023-07-31T02:41:10;16.70;79.20
18365;DHT22;9309;52.126;11.616;2023-07-31T02:43:37;16.80;79.00
18365;DHT22;9309;52.126;11.616;2023-07-31T02:46:03;16.80;78.80
18365;DHT22;9309;52.126;11.616;2023-07-31T02:48:30;16.80;79.30
18365;DHT22;9309;52.126;11.616;2023-07-31T02:50:58;16.60;79.30
18365;DHT22;9309;52.126;11.616;2023-07-31T02:53:25;16.40;80.70
18365;DHT22;9309;52.126;11.616;2023-07-31T02:55:52;16.40;80.10
18365;DHT22;9309;52.126;11.616;2023-07-31T02:58:19;16.50;79.50
18365;DHT22;9309;52.126;11.616;2023-07-31T03:00:46;16.50;79.80
18365;DHT22;9309;52.126;11.616;2023-07-31T03:03:12;16.30;81.00
18365;DHT22;9309;52.126;11.616;2023-07-31T03:05:39;16.30;81.70
18365;DHT22;9309;52.126;11.616;2023-07-31T03:08:07;16.20;81.10
18365;DHT22;9309;52.126;11.616;2023-07-31T03:10:34;16.40;80.10
18365;DHT22;9309;52.126;11.616;2023-07-31T03:13:01;16.40;79.90
18365;DHT22;9309;52.126;11.616;2023-07-31T03:15:27;16.40;80.50
18365;DHT22;9309;52.126;11.616;2023-07-31T03:17:54;16.40;80.10
18365;DHT22;9309;52.126;11.616;2023-07-31T03:20:21;16.40;80.90
18365;DHT22;9309;52.126;11.616;2023-07-31T03:22:48;16.30;81.40
18365;DHT22;9309;52.126;11.616;2023-07-31T03:25:16;16.30;81.70
18365;DHT22;9309;52.126;11.616;2023-07-31T03:27:43;16.20;82.20
18365;DHT22;9309;52.126;11.616;2023-07-31T03:30:10;16.20;82.30
18365;DHT22;9309;52.126;11.616;2023-07-31T03:32:37;16.20;82.90
18365;DHT22;9309;52.126;11.616;2023-07-31T03:35:04;16.20;82.40
18365;DHT22;9309;52.126;11.616;2023-07-31T03:37:31;16.00;82.70
18365;DHT22;9309;52.126;11.616;2023-07-31T03:39:58;15.90;84.40
18365;DHT22;9309;52.126;11.616;2023-07-31T03:42:26;15.90;83.30
18365;DHT22;9309;52.126;11.616;2023-07-31T03:44:53;15.90;82.80
18365;DHT22;9309;52.126;11.616;2023-07-31T03:47:20;16.00;82.70
18365;DHT22;9309;52.126;11.616;2023-07-31T03:49:47;15.90;83.00
18365;DHT22;9309;52.126;11.616;2023-07-31T03:52:14;15.90;83.60
18365;DHT22;9309;52.126;11.616;2023-07-31T03:54:41;16.00;84.10
18365;DHT22;9309;52.126;11.616;2023-07-31T03:57:10;16.00;84.70
18365;DHT22;9309;52.126;11.616;2023-07-31T03:59:38;16.00;85.00
18365;DHT22;9309;52.126;11.616;2023-07-31T04:02:05;16.00;85.80
18365;DHT22;9309;52.126;11.616;2023-07-31T04:04:32;16.10;86.00
18365;DHT22;9309;52.126;11.616;2023-07-31T04:06:58;16.10;85.70
18365;DHT22;9309;52.126;11.616;2023-07-31T04:09:25;16.10;86.20
18365;DHT22;9309;52.126;11.616;2023-07-31T04:11:52;16.00;86.50
18365;DHT22;9309;52.126;11.616;2023-07-31T04:14:19;15.90;87.40
18365;DHT22;9309;52.126;11.616;2023-07-31T04:16:47;16.00;86.70
18365;DHT22;9309;52.126;11.616;2023-07-31T04:19:14;16.10;87.00
18365;DHT22;9309;52.126;11.616;2023-07-31T04:21:42;16.10;86.70
18365;DHT22;9309;52.126;11.616;2023-07-31T04:24:09;16.10;87.10
18365;DHT22;9309;52.126;11.616;2023-07-31T04:26:35;16.10;87.20
18365;DHT22;9309;52.126;11.616;2023-07-31T04:29:02;16.00;87.40
18365;DHT22;9309;52.126;11.616;2023-07-31T04:31:29;16.10;86.90
18365;DHT22;9309;52.126;11.616;2023-07-31T04:33:57;16.00;87.90
18365;DHT22;9309;52.126;11.616;2023-07-31T04:36:24;15.90;88.50
18365;DHT22;9309;52.126;11.616;2023-07-31T04:38:50;16.10;87.60
18365;DHT22;9309;52.126;11.616;2023-07-31T04:41:17;16.20;87.50
18365;DHT22;9309;52.126;11.616;2023-07-31T04:43:44;16.30;87.20
18365;DHT22;9309;52.126;11.616;2023-07-31T04:46:11;16.40;87.00
18365;DHT22;9309;52.126;11.616;2023-07-31T04:48:37;16.50;86.80
18365;DHT22;9309;52.126;11.616;2023-07-31T04:51:05;16.30;88.00
18365;DHT22;9309;52.126;11.616;2023-07-31T04:53:32;16.40;86.50
18365;DHT22;9309;52.126;11.616;2023-07-31T04:55:59;16.50;86.60
18365;DHT22;9309;52.126;11.616;2023-07-31T04:58:26;16.60;86.30
18365;DHT22;9309;52.126;11.616;2023-07-31T05:00:53;16.40;87.50
18365;DHT22;9309;52.126;11.616;2023-07-31T05:03:19;16.40;87.90
18365;DHT22;9309;52.126;11.616;2023-07-31T05:05:46;16.20;87.30
18365;DHT22;9309;52.126;11.616;2023-07-31T05:08:14;16.30;88.10
18365;DHT22;9309;52.126;11.616;2023-07-31T05:10:42;16.50;87.50
18365;DHT22;9309;52.126;11.616;2023-07-31T05:13:09;16.60;87.10
18365;DHT22;9309;52.126;11.616;2023-07-31T05:15:36;16.60;86.40
18365;DHT22;9309;52.126;11.616;2023-07-31T05:18:03;16.60;86.80
18365;DHT22;9309;52.126;11.616;2023-07-31T05:20:30;16.50;86.80
18365;DHT22;9309;52.126;11.616;2023-07-31T05:22:57;16.40;87.40
18365;DHT22;9309;52.126;11.616;2023-07-31T05:25:25;16.50;86.60
18365;DHT22;9309;52.126;11.616;2023-07-31T05:27:52;16.40;86.50
18365;DHT22;9309;52.126;11.616;2023-07-31T05:30:19;16.40;86.70
18365;DHT22;9309;52.126;11.616;2023-07-31T05:32:47;16.50;86.90
18365;DHT22;9309;52.126;11.616;2023-07-31T05:35:14;16.50;86.80
18365;DHT22;9309;52.126;11.616;2023-07-31T05:37:40;16.60;86.20
18365;DHT22;9309;52.126;11.616;2023-07-31T05:40:08;16.60;86.50
18365;DHT22;9309;52.126;11.616;2023-07-31T05:42:36;16.50;86.80
18365;DHT22;9309;52.126;11.616;2023-07-31T05:45:05;16.50;87.20
18365;DHT22;9309;52.126;11.616;2023-07-31T05:47:32;16.50;87.30
18365;DHT22;9309;52.126;11.616;2023-07-31T05:49:59;16.50;87.50
18365;DHT22;9309;52.126;11.616;2023-07-31T05:52:26;16.60;86.50
18365;DHT22;9309;52.126;11.616;2023-07-31T05:54:54;16.60;87.00
18365;DHT22;9309;52.126;11.616;2023-07-31T05:57:21;16.50;87.30
18365;DHT22;9309;52.126;11.616;2023-07-31T05:59:49;16.50;87.10
18365;DHT22;9309;52.126;11.616;2023-07-31T06:02:16;16.50;87.10
18365;DHT22;9309;52.126;11.616;2023-07-31T06:04:43;16.50;86.90
18365;DHT22;9309;52.126;11.616;2023-07-31T06:07:10;16.50;87.90
18365;DHT22;9309;52.126;11.616;2023-07-31T06:09:37;16.30;88.40
18365;DHT22;9309;52.126;11.616;2023-07-31T06:12:04;16.30;88.40
18365;DHT22;9309;52.126;11.616;2023-07-31T06:14:31;16.20;89.00
18365;DHT22;9309;52.126;11.616;2023-07-31T06:16:59;16.10;88.80
18365;DHT22;9309;52.126;11.616;2023-07-31T06:19:26;16.10;89.60
18365;DHT22;9309;52.126;11.616;2023-07-31T06:21:53;15.90;89.60
18365;DHT22;9309;52.126;11.616;2023-07-31T06:24:20;15.70;90.30
18365;DHT22;9309;52.126;11.616;2023-07-31T06:26:47;15.70;90.30
18365;DHT22;9309;52.126;11.616;2023-07-31T06:29:14;15.70;90.50
18365;DHT22;9309;52.126;11.616;2023-07-31T06:31:41;15.60;90.80
18365;DHT22;9309;52.126;11.616;2023-07-31T06:34:09;15.70;90.90
18365;DHT22;9309;52.126;11.616;2023-07-31T06:36:36;15.80;90.60
18365;DHT22;9309;52.126;11.616;2023-07-31T06:39:03;15.90;90.00
18365;DHT22;9309;52.126;11.616;2023-07-31T06:41:30;16.00;90.50
18365;DHT22;9309;52.126;11.616;2023-07-31T06:43:57;16.10;89.90
18365;DHT22;9309;52.126;11.616;2023-07-31T06:46:24;16.20;89.90
18365;DHT22;9309;52.126;11.616;2023-07-31T06:48:50;16.00;89.20
18365;DHT22;9309;52.126;11.616;2023-07-31T06:51:19;16.10;89.30
18365;DHT22;9309;52.126;11.616;2023-07-31T06:53:45;16.10;89.40
18365;DHT22;9309;52.126;11.616;2023-07-31T06:56:12;16.10;89.50
18365;DHT22;9309;52.126;11.616;2023-07-31T06:58:39;16.10;89.00
18365;DHT22;9309;52.126;11.616;2023-07-31T07:01:06;16.30;89.20
18365;DHT22;9309;52.126;11.616;2023-07-31T07:03:33;16.30;88.10
18365;DHT22;9309;52.126;11.616;2023-07-31T07:06:00;16.30;87.90
18365;DHT22;9309;52.126;11.616;2023-07-31T07:08:28;16.30;88.50
18365;DHT22;9309;52.126;11.616;2023-07-31T07:10:55;16.40;87.70
18365;DHT22;9309;52.126;11.616;2023-07-31T07:13:22;16.60;87.50
18365;DHT22;9309;52.126;11.616;2023-07-31T07:15:50;16.70;86.50
18365;DHT22;9309;52.126;11.616;2023-07-31T07:18:17;16.70;86.90
18365;DHT22;9309;52.126;11.616;2023-07-31T07:20:46;16.60;87.90
18365;DHT22;9309;52.126;11.616;2023-07-31T07:23:14;16.80;86.30
18365;DHT22;9309;52.126;11.616;2023-07-31T07:25:42;16.80;86.00
18365;DHT22;9309;52.126;11.616;2023-07-31T07:28:09;17.10;84.50
18365;DHT22;9309;52.126;11.616;2023-07-31T07:30:36;17.10;84.70
18365;DHT22;9309;52.126;11.616;2023-07-31T07:33:03;17.20;84.60
18365;DHT22;9309;52.126;11.616;2023-07-31T07:35:29;17.30;83.80
18365;DHT22;9309;52.126;11.616;2023-07-31T07:37:56;17.50;83.50
18365;DHT22;9309;52.126;11.616;2023-07-31T07:40:23;17.50;83.40
18365;DHT22;9309;52.126;11.616;2023-07-31T07:42:51;17.20;85.10
18365;DHT22;9309;52.126;11.616;2023-07-31T07:45:18;17.30;84.70
18365;DHT22;9309;52.126;11.616;2023-07-31T07:47:45;17.10;85.50
18365;DHT22;9309;52.126;11.616;2023-07-31T07:50:12;17.10;85.90
18365;DHT22;9309;52.126;11.616;2023-07-31T07:52:39;17.30;85.40
18365;DHT22;9309;52.126;11.616;2023-07-31T07:55:06;17.50;84.10
18365;DHT22;9309;52.126;11.616;2023-07-31T07:57:33;17.40;83.40
18365;DHT22;9309;52.126;11.616;2023-07-31T08:00:01;17.50;83.00
18365;DHT22;9309;52.126;11.616;2023-07-31T08:02:39;17.70;83.10
18365;DHT22;9309;52.126;11.616;2023-07-31T08:05:07;17.60;82.70
18365;DHT22;9309;52.126;11.616;2023-07-31T08:07:34;17.60;83.70
18365;DHT22;9309;52.126;11.616;2023-07-31T08:10:00;17.90;83.20
18365;DHT22;9309;52.126;11.616;2023-07-31T08:12:27;18.10;81.40
18365;DHT22;9309;52.126;11.616;2023-07-31T08:14:54;18.20;82.10
18365;DHT22;9309;52.126;11.616;2023-07-31T08:17:22;18.50;81.20
18365;DHT22;9309;52.126;11.616;2023-07-31T08:19:50;18.90;80.00
18365;DHT22;9309;52.126;11.616;2023-07-31T08:22:17;19.10;78.80
18365;DHT22;9309;52.126;11.616;2023-07-31T08:24:43;19.30;78.20
18365;DHT22;9309;52.126;11.616;2023-07-31T08:27:10;19.30;77.60
18365;DHT22;9309;52.126;11.616;2023-07-31T08:29:37;19.20;76.80
18365;DHT22;9309;52.126;11.616;2023-07-31T08:32:04;19.10;77.10
18365;DHT22;9309;52.126;11.616;2023-07-31T08:34:32;19.20;75.00
18365;DHT22;9309;52.126;11.616;2023-07-31T08:36:59;19.10;76.70
18365;DHT22;9309;52.126;11.616;2023-07-31T08:39:25;19.20;76.70
18365;DHT22;9309;52.126;11.616;2023-07-31T08:41:57;19.10;75.70
18365;DHT22;9309;52.126;11.616;2023-07-31T08:44:24;19.20;76.10
18365;DHT22;9309;52.126;11.616;2023-07-31T08:46:51;19.20;74.90
18365;DHT22;9309;52.126;11.616;2023-07-31T08:49:19;19.30;74.20
18365;DHT22;9309;52.126;11.616;2023-07-31T08:51:49;19.30;75.40
18365;DHT22;9309;52.126;11.616;2023-07-31T08:54:16;19.30;73.90
18365;DHT22;9309;52.126;11.616;2023-07-31T08:56:44;19.50;73.20
18365;DHT22;9309;52.126;11.616;2023-07-31T08:59:11;19.50;74.30
18365;DHT22;9309;52.126;11.616;2023-07-31T09:01:43;19.80;74.00
18365;DHT22;9309;52.126;11.616;2023-07-31T09:04:14;20.00;70.90
18365;DHT22;9309;52.126;11.616;2023-07-31T09:06:42;20.00;68.90
18365;DHT22;9309;52.126;11.616;2023-07-31T09:09:11;20.00;68.90
18365;DHT22;9309;52.126;11.616;2023-07-31T09:11:38;20.10;70.10
18365;DHT22;9309;52.126;11.616;2023-07-31T09:14:08;20.40;69.20
18365;DHT22;9309;52.126;11.616;2023-07-31T09:16:35;20.20;66.50
18365;DHT22;9309;52.126;11.616;2023-07-31T09:19:02;20.10;68.50
18365;DHT22;9309;52.126;11.616;2023-07-31T09:21:30;19.90;66.90
18365;DHT22;9309;52.126;11.616;2023-07-31T09:23:57;19.50;67.20
18365;DHT22;9309;52.126;11.616;2023-07-31T09:26:33;19.30;68.70
18365;DHT22;9309;52.126;11.616;2023-07-31T09:29:01;19.30;68.70
18365;DHT22;9309;52.126;11.616;2023-07-31T09:31:40;19.20;69.10
18365;DHT22;9309;52.126;11.616;2023-07-31T09:34:07;19.10;69.30
18365;DHT22;9309;52.126;11.616;2023-07-31T09:36:41;19.10;69.60
18365;DHT22;9309;52.126;11.616;2023-07-31T09:39:09;19.00;70.50
18365;DHT22;9309;52.126;11.616;2023-07-31T09:41:38;19.10;70.10
18365;DHT22;9309;52.126;11.616;2023-07-31T09:44:05;19.20;70.30
18365;DHT22;9309;52.126;11.616;2023-07-31T09:46:34;19.30;69.80
18365;DHT22;9309;52.126;11.616;2023-07-31T09:49:08;19.30;70.30
18365;DHT22;9309;52.126;11.616;2023-07-31T09:51:36;19.30;70.30
18365;DHT22;9309;52.126;11.616;2023-07-31T09:54:09;19.30;69.10
18365;DHT22;9309;52.126;11.616;2023-07-31T09:56:41;19.20;69.30
18365;DHT22;9309;52.126;11.616;2023-07-31T09:59:11;19.10;70.00
18365;DHT22;9309;52.126;11.616;2023-07-31T10:01:40;19.10;70.10
18365;DHT22;9309;52.126;11.616;2023-07-31T10:04:08;19.10;70.80
18365;DHT22;9309;52.126;11.616;2023-07-31T10:06:36;19.20;70.60
18365;DHT22;9309;52.126;11.616;2023-07-31T10:09:05;19.50;69.20
18365;DHT22;9309;52.126;11.616;2023-07-31T10:11:36;19.70;69.20
18365;DHT22;9309;52.126;11.616;2023-07-31T10:14:07;19.70;68.50
18365;DHT22;9309;52.126;11.616;2023-07-31T10:16:37;19.80;67.70
18365;DHT22;9309;52.126;11.616;2023-07-31T10:19:05;19.90;68.40
18365;DHT22;9309;52.126;11.616;2023-07-31T10:21:33;20.10;68.10
18365;DHT22;9309;52.126;11.616;2023-07-31T10:24:04;20.30;66.70
18365;DHT22;9309;52.126;11.616;2023-07-31T10:26:32;20.40;66.10
18365;DHT22;9309;52.126;11.616;2023-07-31T10:28:59;20.20;66.50
18365;DHT22;9309;52.126;11.616;2023-07-31T10:31:28;20.30;67.20
18365;DHT22;9309;52.126;11.616;2023-07-31T10:33:57;20.20;67.30
18365;DHT22;9309;52.126;11.616;2023-07-31T10:36:24;20.30;67.90
18365;DHT22;9309;52.126;11.616;2023-07-31T10:38:52;20.30;67.50
18365;DHT22;9309;52.126;11.616;2023-07-31T10:41:19;20.10;67.60
18365;DHT22;9309;52.126;11.616;2023-07-31T10:43:46;19.80;68.60
18365;DHT22;9309;52.126;11.616;2023-07-31T10:46:14;19.70;69.20
18365;DHT22;9309;52.126;11.616;2023-07-31T10:48:42;19.80;69.30
18365;DHT22;9309;52.126;11.616;2023-07-31T10:51:11;19.80;69.50
18365;DHT22;9309;52.126;11.616;2023-07-31T10:53:39;19.70;69.50
18365;DHT22;9309;52.126;11.616;2023-07-31T10:56:08;19.70;69.80
18365;DHT22;9309;52.126;11.616;2023-07-31T10:58:38;19.80;70.20
18365;DHT22;9309;52.126;11.616;2023-07-31T11:01:06;19.90;70.00
18365;DHT22;9309;52.126;11.616;2023-07-31T11:03:45;20.10;70.10
18365;DHT22;9309;52.126;11.616;2023-07-31T11:06:13;20.20;68.60
18365;DHT22;9309;52.126;11.616;2023-07-31T11:08:44;20.30;68.20
18365;DHT22;9309;52.126;11.616;2023-07-31T11:11:13;20.40;69.00
18365;DHT22;9309;52.126;11.616;2023-07-31T11:13:42;20.40;68.00
18365;DHT22;9309;52.126;11.616;2023-07-31T11:16:09;20.50;67.80
18365;DHT22;9309;52.126;11.616;2023-07-31T11:18:38;20.60;67.50
18365;DHT22;9309;52.126;11.616;2023-07-31T11:21:07;20.60;67.20
18365;DHT22;9309;52.126;11.616;2023-07-31T11:23:36;20.20;67.20
18365;DHT22;9309;52.126;11.616;2023-07-31T11:26:05;20.30;68.00
18365;DHT22;9309;52.126;11.616;2023-07-31T11:28:33;20.40;66.80
18365;DHT22;9309;52.126;11.616;2023-07-31T11:31:00;20.50;66.50
18365;DHT22;9309;52.126;11.616;2023-07-31T11:33:27;20.50;66.60
18365;DHT22;9309;52.126;11.616;2023-07-31T11:35:54;20.70;66.30
18365;DHT22;9309;52.126;11.616;2023-07-31T11:38:24;20.70;65.90
18365;DHT22;9309;52.126;11.616;2023-07-31T11:40:51;20.60;66.90
18365;DHT22;9309;52.126;11.616;2023-07-31T11:43:19;20.70;66.30
18365;DHT22;9309;52.126;11.616;2023-07-31T11:45:47;20.60;67.90
18365;DHT22;9309;52.126;11.616;2023-07-31T11:48:21;20.60;65.90
18365;DHT22;9309;52.126;11.616;2023-07-31T11:50:50;20.80;66.10
18365;DHT22;9309;52.126;11.616;2023-07-31T11:53:20;21.20;65.10
18365;DHT22;9309;52.126;11.616;2023-07-31T11:55:49;21.30;64.70
18365;DHT22;9309;52.126;11.616;2023-07-31T11:58:17;21.40;64.90
18365;DHT22;9309;52.126;11.616;2023-07-31T12:00:44;21.50;64.50
18365;DHT22;9309;52.126;11.616;2023-07-31T12:03:12;21.30;63.80
18365;DHT22;9309;52.126;11.616;2023-07-31T12:05:39;21.20;64.50
18365;DHT22;9309;52.126;11.616;2023-07-31T12:08:10;21.30;63.40
18365;DHT22;9309;52.126;11.616;2023-07-31T12:10:38;21.30;63.80
18365;DHT22;9309;52.126;11.616;2023-07-31T12:13:09;21.50;63.20
18365;DHT22;9309;52.126;11.616;2023-07-31T12:15:40;21.70;62.20
18365;DHT22;9309;52.126;11.616;2023-07-31T12:18:09;22.00;61.30
18365;DHT22;9309;52.126;11.616;2023-07-31T12:20:40;21.90;61.20
18365;DHT22;9309;52.126;11.616;2023-07-31T12:23:12;22.00;62.60
18365;DHT22;9309;52.126;11.616;2023-07-31T12:25:39;23.70;56.80
18365;DHT22;9309;52.126;11.616;2023-07-31T12:28:07;24.30;53.50
18365;DHT22;9309;52.126;11.616;2023-07-31T12:30:37;24.40;55.00
18365;DHT22;9309;52.126;11.616;2023-07-31T12:33:05;24.30;53.80
18365;DHT22;9309;52.126;11.616;2023-07-31T12:35:41;23.60;54.50
18365;DHT22;9309;52.126;11.616;2023-07-31T12:38:07;23.00;55.60
18365;DHT22;9309;52.126;11.616;2023-07-31T12:40:37;22.80;55.30
18365;DHT22;9309;52.126;11.616;2023-07-31T12:43:04;22.30;56.80
18365;DHT22;9309;52.126;11.616;2023-07-31T12:45:32;22.30;57.60
18365;DHT22;9309;52.126;11.616;2023-07-31T12:47:59;22.10;57.70
18365;DHT22;9309;52.126;11.616;2023-07-31T12:50:26;21.90;58.00
18365;DHT22;9309;52.126;11.616;2023-07-31T12:52:54;21.90;57.70
18365;DHT22;9309;52.126;11.616;2023-07-31T12:55:21;22.00;58.50
18365;DHT22;9309;52.126;11.616;2023-07-31T12:57:48;22.30;57.60
18365;DHT22;9309;52.126;11.616;2023-07-31T13:00:15;22.40;57.10
18365;DHT22;9309;52.126;11.616;2023-07-31T13:02:43;22.40;57.70
18365;DHT22;9309;52.126;11.616;2023-07-31T13:05:10;22.50;57.70
18365;DHT22;9309;52.126;11.616;2023-07-31T13:07:38;22.60;58.00
18365;DHT22;9309;52.126;11.616;2023-07-31T13:10:06;22.40;58.00
18365;DHT22;9309;52.126;11.616;2023-07-31T13:12:34;22.40;57.90
18365;DHT22;9309;52.126;11.616;2023-07-31T13:15:00;22.20;57.90
18365;DHT22;9309;52.126;11.616;2023-07-31T13:17:27;22.00;59.00
18365;DHT22;9309;52.126;11.616;2023-07-31T13:19:55;22.10;58.70
18365;DHT22;9309;52.126;11.616;2023-07-31T13:22:22;22.10;59.00
18365;DHT22;9309;52.126;11.616;2023-07-31T13:24:49;22.20;58.40
18365;DHT22;9309;52.126;11.616;2023-07-31T13:27:16;22.20;58.80
18365;DHT22;9309;52.126;11.616;2023-07-31T13:29:45;22.30;58.80
18365;DHT22;9309;52.126;11.616;2023-07-31T13:32:12;22.30;57.90
18365;DHT22;9309;52.126;11.616;2023-07-31T13:34:38;22.00;58.10
18365;DHT22;9309;52.126;11.616;2023-07-31T13:37:07;22.00;58.30
18365;DHT22;9309;52.126;11.616;2023-07-31T13:39:33;22.20;58.40
18365;DHT22;9309;52.126;11.616;2023-07-31T13:42:01;22.20;57.90
18365;DHT22;9309;52.126;11.616;2023-07-31T13:44:28;22.20;58.20
18365;DHT22;9309;52.126;11.616;2023-07-31T13:46:55;22.00;57.80
18365;DHT22;9309;52.126;11.616;2023-07-31T13:49:22;21.80;58.70
18365;DHT22;9309;52.126;11.616;2023-07-31T13:51:50;21.80;59.10
18365;DHT22;9309;52.126;11.616;2023-07-31T13:54:18;21.80;59.10
18365;DHT22;9309;52.126;11.616;2023-07-31T13:56:45;21.90;59.10
18365;DHT22;9309;52.126;11.616;2023-07-31T13:59:11;21.80;59.30
18365;DHT22;9309;52.126;11.616;2023-07-31T14:01:40;22.00;58.80
18365;DHT22;9309;52.126;11.616;2023-07-31T14:04:07;22.10;58.00
18365;DHT22;9309;52.126;11.616;2023-07-31T14:06:34;22.20;57.60
18365;DHT22;9309;52.126;11.616;2023-07-31T14:09:01;22.00;58.50
18365;DHT22;9309;52.126;11.616;2023-07-31T14:11:31;22.00;58.40
18365;DHT22;9309;52.126;11.616;2023-07-31T14:13:58;22.10;58.70
18365;DHT22;9309;52.126;11.616;2023-07-31T14:16:25;22.20;58.40
18365;DHT22;9309;52.126;11.616;2023-07-31T14:18:52;22.70;57.70
18365;DHT22;9309;52.126;11.616;2023-07-31T14:21:19;23.00;56.30
18365;DHT22;9309;52.126;11.616;2023-07-31T14:23:46;22.60;57.10
18365;DHT22;9309;52.126;11.616;2023-07-31T14:26:13;22.20;58.30
18365;DHT22;9309;52.126;11.616;2023-07-31T14:28:41;22.00;59.40
18365;DHT22;9309;52.126;11.616;2023-07-31T14:31:08;21.90;60.50
18365;DHT22;9309;52.126;11.616;2023-07-31T14:33:35;22.00;60.10
18365;DHT22;9309;52.126;11.616;2023-07-31T14:36:02;21.90;59.70
18365;DHT22;9309;52.126;11.616;2023-07-31T14:38:29;21.70;60.80
18365;DHT22;9309;52.126;11.616;2023-07-31T14:40:56;21.60;61.30
18365;DHT22;9309;52.126;11.616;2023-07-31T14:43:23;21.50;60.90
18365;DHT22;9309;52.126;11.616;2023-07-31T14:45:51;21.50;61.10
18365;DHT22;9309;52.126;11.616;2023-07-31T14:48:19;21.50;61.40
18365;DHT22;9309;52.126;11.616;2023-07-31T14:50:46;21.50;61.20
18365;DHT22;9309;52.126;11.616;2023-07-31T14:53:12;21.40;61.40
18365;DHT22;9309;52.126;11.616;2023-07-31T14:55:39;21.40;61.50
18365;DHT22;9309;52.126;11.616;2023-07-31T14:58:06;21.40;61.70
18365;DHT22;9309;52.126;11.616;2023-07-31T15:00:33;21.60;61.50
18365;DHT22;9309;52.126;11.616;2023-07-31T15:03:02;21.70;60.60
18365;DHT22;9309;52.126;11.616;2023-07-31T15:05:29;21.60;61.50
18365;DHT22;9309;52.126;11.616;2023-07-31T15:07:55;21.30;62.50
18365;DHT22;9309;52.126;11.616;2023-07-31T15:10:22;21.20;63.00
18365;DHT22;9309;52.126;11.616;2023-07-31T15:12:49;21.10;63.80
18365;DHT22;9309;52.126;11.616;2023-07-31T15:15:16;20.80;65.90
18365;DHT22;9309;52.126;11.616;2023-07-31T15:17:43;20.50;67.80
18365;DHT22;9309;52.126;11.616;2023-07-31T15:20:11;20.50;67.70
18365;DHT22;9309;52.126;11.616;2023-07-31T15:22:38;20.70;67.30
18365;DHT22;9309;52.126;11.616;2023-07-31T15:25:06;20.70;67.70
18365;DHT22;9309;52.126;11.616;2023-07-31T15:27:33;20.70;68.30
18365;DHT22;9309;52.126;11.616;2023-07-31T15:30:00;20.80;68.10
18365;DHT22;9309;52.126;11.616;2023-07-31T15:32:28;20.70;68.30